Search for airport 
image banner adimage banner adimage banner ad
image banner ad

CN22 - Mercey Hot Springs

Located in Firebaugh, United States

ICAO - CN22, IATA -

Data provided by Airmate  

General information

Coordinates: N36°42'23" W120°51'36"
Elevation is 1170 feet MSL.
 
View others Airports in California

Operational data

Special qualification required
Current time UTC:
Current local time:
Weather at : KCVH - Hollister Muni ( 53 km )
METAR: KCVH 210235Z AUTO 01012KT 10SM CLR 27/05 A2993 RMK A01
View NOTAMs / SUP AIP / TFR affecting this airport [VIEW]
Communications frequencies: [VIEW]

Runways:

RWY identifierQFULength (ft)Width (ft)SurfaceLDA (ft)
15208230EARTH
33208230EARTH

Airport contact information

Address: Firebaugh United States

Satellite view of CN22